Time;durP1;ratioP1;P1;durP2;ratioP2;P2;SDS_P1;SDS_P2;PMS_P1;PMS_P2;Temp;Humidity;BMP_temperature;BMP_pressure;BME280_temperature;BME280_humidity;BME280_pressure;Samples;Min_cycle;Max_cycle;Signal;HPM_P1;HPM_P2
2023/04/23 00:01:11;;;;;;;39.35;29.55;;;8.80;99.90;;;;;;5003303;28;20073;-68
2023/04/23 00:03:40;;;;;;;39.65;30.10;;;8.80;99.90;;;;;;5003504;28;20057;-69
2023/04/23 00:06:09;;;;;;;41.53;28.90;;;8.70;99.90;;;;;;5002778;28;20396;-66
2023/04/23 00:08:39;;;;;;;41.63;29.95;;;8.70;99.90;;;;;;5002922;28;20049;-65
2023/04/23 00:11:05;;;;;;;39.97;30.38;;;8.70;99.90;;;;;;5002180;28;20450;-55
2023/04/23 00:13:31;;;;;;;43.45;30.73;;;8.70;99.90;;;;;;5002376;28;20219;-68
2023/04/23 00:15:57;;;;;;;41.90;31.80;;;8.70;99.90;;;;;;5002409;28;20061;-65
2023/04/23 00:18:23;;;;;;;44.53;32.15;;;8.80;99.90;;;;;;5002895;28;20064;-70
2023/04/23 00:20:49;;;;;;;46.83;34.20;;;8.80;99.90;;;;;;4996409;28;20113;-65
2023/04/23 00:23:15;;;;;;;47.63;33.40;;;8.70;99.90;;;;;;4982743;28;20054;-71
2023/04/23 00:25:40;;;;;;;51.33;35.78;;;8.60;99.90;;;;;;4982035;28;20042;-70
2023/04/23 00:28:06;;;;;;;48.65;33.85;;;8.70;99.90;;;;;;4982223;28;20046;-70
2023/04/23 00:30:32;;;;;;;48.10;35.80;;;8.60;99.90;;;;;;4982619;28;20328;-71
2023/04/23 00:32:58;;;;;;;46.40;35.50;;;8.50;99.90;;;;;;4982985;28;20395;-64
2023/04/23 00:35:24;;;;;;;51.97;36.50;;;8.60;99.90;;;;;;4982734;28;20112;-68
2023/04/23 00:37:49;;;;;;;51.63;37.15;;;8.60;99.90;;;;;;4982995;28;20043;-71
2023/04/23 00:40:15;;;;;;;56.97;38.45;;;8.60;99.90;;;;;;4982523;28;20035;-64
2023/04/23 00:42:41;;;;;;;56.15;38.63;;;8.70;99.90;;;;;;4982485;28;20254;-71
2023/04/23 00:45:07;;;;;;;59.60;41.03;;;8.60;99.90;;;;;;4982679;28;20038;-67
2023/04/23 00:47:33;;;;;;;61.75;40.55;;;8.50;99.90;;;;;;4982557;28;20398;-71
2023/04/23 00:49:59;;;;;;;58.47;40.40;;;8.50;99.90;;;;;;4982683;28;20043;-71
2023/04/23 00:52:25;;;;;;;60.25;40.33;;;8.40;99.90;;;;;;4982688;28;20057;-71
2023/04/23 00:54:51;;;;;;;61.45;41.00;;;8.70;99.90;;;;;;4982159;28;20046;-70
2023/04/23 00:57:17;;;;;;;60.40;40.88;;;8.40;99.90;;;;;;4981679;28;20046;-65
2023/04/23 00:59:43;;;;;;;65.72;42.20;;;8.40;99.90;;;;;;4982825;28;20342;-67
2023/04/23 01:02:09;;;;;;;62.00;41.55;;;8.50;99.90;;;;;;4982826;28;20446;-70
2023/04/23 01:04:36;;;;;;;64.35;40.35;;;8.60;99.90;;;;;;4982190;28;20085;-70
2023/04/23 01:07:03;;;;;;;60.13;41.25;;;8.50;99.90;;;;;;5064735;23;20141;-66
2023/04/23 01:09:28;;;;;;;62.38;41.88;;;8.50;99.90;;;;;;5003526;28;20495;-66
2023/04/23 01:11:56;;;;;;;60.83;39.42;;;8.60;99.90;;;;;;5003634;28;20072;-68
2023/04/23 01:14:22;;;;;;;63.15;40.50;;;8.70;99.90;;;;;;4990476;28;20057;-65
2023/04/23 01:16:48;;;;;;;67.70;40.80;;;8.40;99.90;;;;;;4985109;28;20043;-56
2023/04/23 01:19:14;;;;;;;65.45;40.17;;;8.40;99.90;;;;;;4985761;28;20047;-62
2023/04/23 01:21:41;;;;;;;61.45;40.13;;;8.50;99.90;;;;;;4987927;28;20081;-60
2023/04/23 01:24:08;;;;;;;63.08;38.65;;;8.50;99.90;;;;;;4988775;28;20047;-64
2023/04/23 01:26:33;;;;;;;67.28;41.78;;;8.50;99.90;;;;;;4988146;28;20155;-63
2023/04/23 01:29:00;;;;;;;60.28;39.97;;;8.80;99.90;;;;;;4988549;28;20106;-62
2023/04/23 01:31:29;;;;;;;64.22;40.30;;;8.60;99.90;;;;;;4987595;28;20093;-64
2023/04/23 01:33:56;;;;;;;58.15;37.72;;;8.70;99.90;;;;;;4987285;28;20146;-70
2023/04/23 01:36:23;;;;;;;57.15;37.03;;;8.60;99.90;;;;;;4987875;28;20109;-69
2023/04/23 01:38:48;;;;;;;58.13;36.40;;;8.50;99.90;;;;;;4988557;28;20111;-71
2023/04/23 01:41:14;;;;;;;60.85;38.10;;;8.50;99.90;;;;;;4987986;28;20038;-70
2023/04/23 01:43:44;;;;;;;57.08;37.40;;;8.40;99.90;;;;;;4987917;28;20050;-69
2023/04/23 01:46:10;;;;;;;54.90;35.22;;;8.40;99.90;;;;;;4988315;28;20574;-68
2023/04/23 01:48:36;;;;;;;58.83;37.78;;;8.80;99.90;;;;;;4988940;28;20049;-67
2023/04/23 01:51:02;;;;;;;56.35;35.78;;;8.70;99.90;;;;;;4987596;28;20042;-63
2023/04/23 01:53:27;;;;;;;62.00;35.72;;;8.50;99.90;;;;;;4988282;28;20485;-66
2023/04/23 01:55:54;;;;;;;59.05;36.47;;;8.30;99.90;;;;;;4987212;28;20058;-66
2023/04/23 01:58:22;;;;;;;60.25;37.47;;;8.30;99.90;;;;;;4987791;28;20072;-63
2023/04/23 02:00:48;;;;;;;62.92;35.70;;;8.20;99.90;;;;;;4988460;28;20042;-61
2023/04/23 02:03:14;;;;;;;67.97;37.20;;;8.30;99.90;;;;;;4987777;28;20062;-59
2023/04/23 02:05:40;;;;;;;66.70;36.83;;;8.30;99.90;;;;;;4988162;28;20049;-64
2023/04/23 02:08:06;;;;;;;59.80;37.08;;;8.20;99.90;;;;;;4987271;28;20066;-64
2023/04/23 02:10:32;;;;;;;63.33;38.50;;;8.20;99.90;;;;;;4988586;28;20401;-62
2023/04/23 02:12:59;;;;;;;62.33;38.60;;;8.20;99.90;;;;;;4987186;28;20046;-57
2023/04/23 02:15:24;;;;;;;59.20;37.35;;;8.20;99.90;;;;;;4987048;28;20039;-67
2023/04/23 02:17:51;;;;;;;63.50;39.17;;;8.30;99.90;;;;;;4987625;28;20042;-65
2023/04/23 02:20:17;;;;;;;63.05;39.97;;;8.30;99.90;;;;;;4987098;28;20046;-69
2023/04/23 02:22:43;;;;;;;67.22;41.05;;;8.10;99.90;;;;;;4987606;28;20046;-68
2023/04/23 02:25:10;;;;;;;60.22;39.28;;;8.10;99.90;;;;;;4986601;28;20058;-67
2023/04/23 02:27:36;;;;;;;67.32;39.60;;;8.10;99.90;;;;;;4986936;28;20054;-72
2023/04/23 02:30:02;;;;;;;63.60;39.17;;;8.20;99.90;;;;;;4987698;28;20061;-67
2023/04/23 02:32:28;;;;;;;59.35;38.70;;;8.10;99.90;;;;;;4984329;28;20065;-66
2023/04/23 02:34:54;;;;;;;66.10;39.25;;;8.10;99.90;;;;;;4987173;28;20823;-58
2023/04/23 02:37:20;;;;;;;63.05;39.25;;;8.10;99.90;;;;;;4987248;28;20049;-67
2023/04/23 02:39:46;;;;;;;65.85;39.15;;;8.00;99.90;;;;;;4986694;28;20042;-64
2023/04/23 02:42:12;;;;;;;61.47;39.00;;;8.00;99.90;;;;;;4987184;28;20038;-69
2023/04/23 02:44:38;;;;;;;63.10;39.17;;;8.00;99.90;;;;;;4987177;28;20046;-71
2023/04/23 02:47:03;;;;;;;67.00;39.20;;;8.00;99.90;;;;;;4987430;28;20497;-66
2023/04/23 02:49:29;;;;;;;69.28;40.25;;;8.00;99.90;;;;;;4987115;28;20038;-71
2023/04/23 02:51:55;;;;;;;65.15;40.97;;;8.00;99.90;;;;;;4987597;28;20042;-69
2023/04/23 02:54:20;;;;;;;66.28;40.50;;;7.90;99.90;;;;;;4986131;28;20065;-58
2023/04/23 02:56:46;;;;;;;65.18;40.40;;;7.90;99.90;;;;;;4986541;28;20053;-71
2023/04/23 02:59:12;;;;;;;63.03;40.58;;;7.90;99.90;;;;;;4987412;28;20073;-72
2023/04/23 03:01:37;;;;;;;59.20;39.15;;;7.80;99.90;;;;;;4987738;28;20571;-68
2023/04/23 03:04:03;;;;;;;62.70;39.83;;;7.90;99.90;;;;;;4987587;28;20046;-69
2023/04/23 03:06:30;;;;;;;60.60;38.13;;;7.80;99.90;;;;;;4986623;28;20046;-72
2023/04/23 03:08:56;;;;;;;61.95;40.42;;;7.80;99.90;;;;;;4993488;28;20057;-69
2023/04/23 03:11:22;;;;;;;60.80;40.85;;;7.90;99.90;;;;;;5006697;28;20042;-65
2023/04/23 03:13:48;;;;;;;61.15;41.63;;;7.80;99.90;;;;;;5007047;28;20065;-72
2023/04/23 03:16:13;;;;;;;59.40;40.35;;;7.80;99.90;;;;;;5006807;28;20046;-71
2023/04/23 03:18:39;;;;;;;65.32;41.60;;;7.80;99.90;;;;;;5007014;28;20493;-66
2023/04/23 03:21:05;;;;;;;67.55;41.60;;;7.80;99.90;;;;;;5005948;28;20038;-60
2023/04/23 03:23:31;;;;;;;70.70;44.70;;;7.90;99.90;;;;;;5006703;28;20073;-64
2023/04/23 03:25:56;;;;;;;72.10;43.15;;;7.80;99.90;;;;;;5006162;28;20091;-69
2023/04/23 03:28:22;;;;;;;74.35;44.40;;;7.70;99.90;;;;;;5006640;28;20487;-59
2023/04/23 03:30:48;;;;;;;77.20;45.53;;;7.60;99.90;;;;;;5005593;28;20121;-67
2023/04/23 03:33:14;;;;;;;80.65;46.42;;;7.60;99.90;;;;;;5005239;28;20050;-69
2023/04/23 03:35:40;;;;;;;80.20;45.08;;;7.50;99.90;;;;;;5006195;28;20038;-69
2023/04/23 03:38:06;;;;;;;80.50;45.97;;;7.60;99.90;;;;;;5005780;28;20065;-69
2023/04/23 03:40:31;;;;;;;74.63;44.17;;;7.60;99.90;;;;;;5005672;28;20070;-70
2023/04/23 03:42:57;;;;;;;79.80;45.42;;;7.60;99.90;;;;;;5005932;28;20034;-65
2023/04/23 03:45:23;;;;;;;93.40;49.65;;;7.70;99.90;;;;;;5006179;28;20389;-56
2023/04/23 03:47:49;;;;;;;91.78;49.10;;;7.50;99.90;;;;;;5005500;28;20037;-57
2023/04/23 03:50:16;;;;;;;92.63;47.95;;;7.50;99.90;;;;;;5006387;28;20487;-69
2023/04/23 03:52:42;;;;;;;95.60;50.67;;;7.50;99.90;;;;;;5005206;28;20259;-67
2023/04/23 03:55:08;;;;;;;96.63;51.33;;;7.50;99.90;;;;;;5004016;28;20081;-72
2023/04/23 03:57:38;;;;;;;101.32;51.00;;;7.50;99.90;;;;;;5005253;28;20050;-67
2023/04/23 04:00:07;;;;;;;108.45;52.20;;;7.50;99.90;;;;;;5005977;28;20426;-62
2023/04/23 04:02:34;;;;;;;107.65;52.35;;;7.50;99.90;;;;;;5005644;28;20048;-70
2023/04/23 04:05:00;;;;;;;108.47;53.80;;;7.50;99.90;;;;;;5006026;28;20125;-68
2023/04/23 04:07:26;;;;;;;110.35;54.00;;;7.40;99.90;;;;;;5005879;28;20050;-70
2023/04/23 04:09:51;;;;;;;99.57;52.38;;;7.40;99.90;;;;;;5005346;28;20739;-56
2023/04/23 04:12:17;;;;;;;104.97;51.65;;;7.50;99.90;;;;;;5005251;28;20109;-70
2023/04/23 04:14:43;;;;;;;98.60;51.72;;;7.40;99.90;;;;;;5006059;28;20773;-69
2023/04/23 04:17:08;;;;;;;110.20;53.88;;;7.40;99.90;;;;;;5005433;28;20049;-69
2023/04/23 04:19:34;;;;;;;100.03;50.90;;;7.40;99.90;;;;;;5005238;28;20046;-71
2023/04/23 04:22:02;;;;;;;112.18;53.22;;;7.50;99.90;;;;;;5005938;28;20077;-58
2023/04/23 04:24:31;;;;;;;103.40;53.03;;;7.60;99.90;;;;;;5004816;28;20171;-56
2023/04/23 04:26:58;;;;;;;108.47;53.08;;;7.50;99.90;;;;;;5003843;28;20038;-68
2023/04/23 04:29:25;;;;;;;113.55;54.30;;;7.40;99.90;;;;;;5006125;28;20125;-67
2023/04/23 04:31:52;;;;;;;119.57;57.63;;;7.50;99.90;;;;;;5005504;28;20124;-56
2023/04/23 04:34:17;;;;;;;114.10;56.67;;;7.60;99.90;;;;;;5004441;28;20046;-64
2023/04/23 04:36:43;;;;;;;109.30;54.20;;;7.50;99.90;;;;;;5005139;28;20507;-62
2023/04/23 04:39:09;;;;;;;114.68;56.40;;;7.50;99.90;;;;;;5004568;28;20049;-61
2023/04/23 04:41:36;;;;;;;117.32;56.97;;;7.40;99.90;;;;;;5004031;28;20044;-61
2023/04/23 04:44:01;;;;;;;111.88;55.90;;;7.40;99.90;;;;;;5004598;28;20121;-61
2023/04/23 04:46:28;;;;;;;121.70;55.45;;;7.40;99.90;;;;;;5005060;28;20136;-54
2023/04/23 04:48:53;;;;;;;107.32;52.95;;;7.40;99.90;;;;;;5005270;28;20049;-66
2023/04/23 04:51:20;;;;;;;114.55;55.33;;;7.40;99.90;;;;;;5004917;28;20476;-60
2023/04/23 04:53:45;;;;;;;113.75;57.63;;;7.50;99.90;;;;;;5002734;28;20081;-62
2023/04/23 04:56:11;;;;;;;119.28;57.55;;;7.50;99.90;;;;;;5003410;28;20417;-60
2023/04/23 04:58:37;;;;;;;118.88;57.38;;;7.70;99.90;;;;;;5004474;28;20112;-63
2023/04/23 05:01:04;;;;;;;132.70;57.40;;;7.70;99.90;;;;;;5004738;28;20078;-65
2023/04/23 05:03:30;;;;;;;144.50;60.38;;;7.50;99.90;;;;;;5004076;28;20052;-61
2023/04/23 05:05:57;;;;;;;146.40;63.95;;;7.50;99.90;;;;;;5005271;28;20037;-69
2023/04/23 05:08:23;;;;;;;156.45;63.50;;;7.50;99.90;;;;;;5004702;28;20842;-66
2023/04/23 05:10:49;;;;;;;150.15;66.75;;;7.50;99.90;;;;;;5004104;28;20040;-60
2023/04/23 05:13:16;;;;;;;155.30;66.15;;;7.40;99.90;;;;;;5005424;28;20063;-69
2023/04/23 05:15:42;;;;;;;169.27;68.68;;;7.40;99.90;;;;;;5003909;28;20037;-55
2023/04/23 05:18:09;;;;;;;164.90;68.72;;;7.50;99.90;;;;;;5005016;28;20170;-71
2023/04/23 05:20:36;;;;;;;170.77;70.43;;;7.50;99.90;;;;;;5004500;28;20064;-66
2023/04/23 05:23:02;;;;;;;173.85;71.15;;;7.60;99.90;;;;;;5004294;28;20081;-57
2023/04/23 05:25:29;;;;;;;172.23;72.80;;;7.60;99.90;;;;;;5003903;28;20478;-72
2023/04/23 05:27:55;;;;;;;173.30;74.18;;;7.70;99.90;;;;;;5005205;28;20052;-63
2023/04/23 05:30:23;;;;;;;184.10;71.85;;;7.70;99.90;;;;;;5004907;28;20085;-55
2023/04/23 05:32:49;;;;;;;183.00;74.95;;;7.70;99.90;;;;;;5003718;28;20524;-73
2023/04/23 05:35:15;;;;;;;167.48;71.05;;;7.80;99.90;;;;;;5004956;28;20173;-70
2023/04/23 05:37:41;;;;;;;166.15;71.18;;;7.70;99.90;;;;;;5004742;28;20133;-67
2023/04/23 05:40:08;;;;;;;188.27;76.35;;;7.80;99.90;;;;;;5003934;28;20125;-68
2023/04/23 05:42:34;;;;;;;180.15;74.88;;;7.70;99.90;;;;;;5004555;28;20085;-63
2023/04/23 05:45:00;;;;;;;179.55;75.30;;;7.90;99.90;;;;;;5003467;28;20060;-57
2023/04/23 05:47:26;;;;;;;176.77;72.47;;;7.70;99.90;;;;;;5003929;28;20067;-61
2023/04/23 05:49:51;;;;;;;163.23;72.03;;;7.70;99.90;;;;;;5003891;28;20096;-60
2023/04/23 05:52:18;;;;;;;175.02;73.75;;;7.80;99.90;;;;;;5004398;28;20052;-61
2023/04/23 05:54:43;;;;;;;145.25;60.08;;;7.80;99.90;;;;;;5004279;28;20420;-63
2023/04/23 05:57:10;;;;;;;163.85;71.75;;;7.90;99.90;;;;;;5002644;28;20050;-62
2023/04/23 05:59:36;;;;;;;165.05;72.95;;;7.90;99.90;;;;;;5004473;28;20045;-63
2023/04/23 06:02:02;;;;;;;154.45;67.78;;;7.90;99.90;;;;;;5004107;28;20042;-65
2023/04/23 06:04:27;;;;;;;170.88;75.00;;;7.90;99.90;;;;;;5004324;28;20479;-61
2023/04/23 06:06:53;;;;;;;158.18;73.07;;;8.00;99.90;;;;;;5007185;28;20504;-56
2023/04/23 06:09:19;;;;;;;158.98;73.32;;;8.00;99.90;;;;;;5007919;28;20054;-64
2023/04/23 06:11:45;;;;;;;162.40;74.47;;;8.00;99.90;;;;;;5006276;28;20041;-58
2023/04/23 06:14:10;;;;;;;163.73;77.20;;;8.00;99.90;;;;;;5007786;28;20644;-60
2023/04/23 06:16:36;;;;;;;164.80;76.78;;;8.10;99.90;;;;;;5007407;28;20865;-59
2023/04/23 06:19:02;;;;;;;167.68;76.22;;;8.40;99.90;;;;;;5008144;28;20049;-55
2023/04/23 06:21:28;;;;;;;167.45;75.75;;;8.40;99.90;;;;;;5007100;28;20080;-64
2023/04/23 06:23:54;;;;;;;154.13;71.70;;;8.60;99.90;;;;;;5006632;28;20088;-64
2023/04/23 06:26:19;;;;;;;145.27;70.00;;;8.60;99.90;;;;;;5005788;28;20053;-61
2023/04/23 06:28:45;;;;;;;159.85;73.70;;;8.50;99.90;;;;;;5005435;28;20204;-59
2023/04/23 06:31:12;;;;;;;152.50;74.75;;;8.60;99.90;;;;;;5006457;28;20607;-61
2023/04/23 06:33:38;;;;;;;150.00;71.47;;;8.60;99.90;;;;;;5007140;28;20439;-65
2023/04/23 06:36:04;;;;;;;131.27;69.80;;;9.00;99.90;;;;;;5007448;28;20113;-61
2023/04/23 06:38:30;;;;;;;135.65;69.85;;;8.70;99.90;;;;;;5007546;28;20401;-65
2023/04/23 06:40:56;;;;;;;136.38;70.55;;;8.80;99.90;;;;;;5006450;28;20038;-68
2023/04/23 06:43:22;;;;;;;124.82;68.75;;;8.90;99.90;;;;;;5006643;28;20049;-68
2023/04/23 06:45:48;;;;;;;124.82;67.05;;;9.20;99.90;;;;;;5005630;28;20045;-61
2023/04/23 06:48:15;;;;;;;121.35;64.30;;;9.40;99.90;;;;;;5007187;28;20056;-69
2023/04/23 06:50:40;;;;;;;104.72;62.00;;;9.50;99.90;;;;;;5007271;28;20121;-63
2023/04/23 06:53:06;;;;;;;104.68;61.22;;;9.50;99.90;;;;;;5006271;28;20128;-72
2023/04/23 06:55:31;;;;;;;106.78;62.92;;;9.60;99.90;;;;;;5006463;28;20132;-67
2023/04/23 06:57:57;;;;;;;103.60;59.15;;;9.60;99.90;;;;;;5006338;28;20100;-70
2023/04/23 07:00:23;;;;;;;100.00;57.50;;;9.80;99.90;;;;;;5006645;28;20772;-68
2023/04/23 07:02:49;;;;;;;93.50;58.33;;;9.80;99.90;;;;;;5005151;28;20068;-62
2023/04/23 07:05:16;;;;;;;87.35;54.20;;;10.10;99.90;;;;;;5005145;28;20073;-72
2023/04/23 07:07:42;;;;;;;94.45;57.05;;;10.10;99.90;;;;;;5004119;28;20571;-68
2023/04/23 07:10:10;;;;;;;88.22;57.58;;;10.20;99.90;;;;;;5002760;28;20080;-72
2023/04/23 07:12:37;;;;;;;80.53;55.35;;;10.60;99.90;;;;;;5003808;28;20106;-71
2023/04/23 07:15:04;;;;;;;83.50;53.42;;;11.00;99.90;;;;;;5004279;28;20053;-71
2023/04/23 07:17:29;;;;;;;76.07;52.38;;;11.20;99.90;;;;;;5002238;28;20128;-70
2023/04/23 07:19:55;;;;;;;73.65;49.70;;;11.60;99.90;;;;;;5002737;28;20133;-72
2023/04/23 07:22:22;;;;;;;71.25;48.42;;;11.80;99.90;;;;;;5004058;28;20050;-63
2023/04/23 07:24:48;;;;;;;70.35;48.58;;;11.90;99.90;;;;;;5003431;28;20400;-69
2023/04/23 07:27:13;;;;;;;62.05;43.15;;;11.90;99.90;;;;;;5003146;28;20046;-65
2023/04/23 07:29:39;;;;;;;62.50;42.10;;;11.90;99.90;;;;;;5003759;28;20034;-69
2023/04/23 07:32:05;;;;;;;60.38;42.47;;;12.10;99.90;;;;;;5003851;28;20042;-68
2023/04/23 07:34:30;;;;;;;57.92;40.40;;;12.10;99.90;;;;;;5003121;28;20050;-68
2023/04/23 07:36:56;;;;;;;56.08;38.95;;;12.10;99.90;;;;;;5003762;28;20477;-66
2023/04/23 07:39:22;;;;;;;58.85;40.25;;;12.10;99.90;;;;;;5003661;28;20050;-71
2023/04/23 07:41:48;;;;;;;60.92;41.55;;;12.10;99.90;;;;;;5003120;28;20180;-70
2023/04/23 07:44:13;;;;;;;55.58;38.92;;;12.10;99.90;;;;;;5003235;28;20443;-66
2023/04/23 07:46:39;;;;;;;53.75;37.63;;;12.20;99.90;;;;;;5003302;28;20069;-57
2023/04/23 07:49:06;;;;;;;52.55;32.78;;;12.40;99.90;;;;;;5003713;28;20057;-68
2023/04/23 07:51:32;;;;;;;51.22;34.72;;;12.40;99.90;;;;;;5003152;28;20056;-62
2023/04/23 07:53:57;;;;;;;47.13;33.47;;;12.40;99.90;;;;;;5003611;28;20049;-71
2023/04/23 07:56:23;;;;;;;51.38;37.05;;;12.40;99.90;;;;;;5002293;28;20484;-66
2023/04/23 07:58:52;;;;;;;48.22;32.22;;;12.50;99.90;;;;;;5002664;28;20054;-63
2023/04/23 08:01:18;;;;;;;50.53;36.95;;;12.50;99.90;;;;;;5003176;28;20046;-61
2023/04/23 08:03:43;;;;;;;52.63;36.13;;;12.70;99.90;;;;;;5003319;28;20050;-62
2023/04/23 08:06:11;;;;;;;52.83;36.58;;;12.80;99.90;;;;;;5003127;28;20381;-61
2023/04/23 08:08:37;;;;;;;50.53;35.63;;;12.80;99.90;;;;;;5002531;28;20159;-59
2023/04/23 08:11:05;;;;;;;47.53;33.50;;;12.90;99.90;;;;;;5002617;28;20493;-60
2023/04/23 08:13:31;;;;;;;48.60;34.95;;;13.00;99.90;;;;;;5002877;28;20103;-61
2023/04/23 08:15:56;;;;;;;44.58;30.77;;;12.90;99.90;;;;;;5000705;28;20042;-71
2023/04/23 08:18:22;;;;;;;46.55;33.05;;;12.90;99.90;;;;;;5002951;28;20401;-67
2023/04/23 08:20:48;;;;;;;46.28;34.45;;;12.80;99.90;;;;;;5002946;28;20038;-60
2023/04/23 08:23:14;;;;;;;47.88;33.00;;;12.80;99.90;;;;;;5002436;28;20042;-67
2023/04/23 08:25:40;;;;;;;47.65;33.22;;;12.70;99.90;;;;;;5001909;28;20358;-57
2023/04/23 08:28:05;;;;;;;44.85;32.28;;;12.70;99.90;;;;;;5002875;28;20041;-64
2023/04/23 08:30:31;;;;;;;44.40;30.42;;;12.90;99.90;;;;;;5003054;28;20038;-68
2023/04/23 08:32:57;;;;;;;47.28;32.13;;;13.20;99.90;;;;;;5000703;28;20053;-66
2023/04/23 08:35:24;;;;;;;45.60;32.03;;;13.30;99.90;;;;;;5002533;28;20038;-69
2023/04/23 08:37:49;;;;;;;42.33;30.88;;;13.40;99.90;;;;;;5002566;28;20046;-71
2023/04/23 08:40:15;;;;;;;47.97;32.08;;;13.50;99.90;;;;;;5001159;28;20550;-68
2023/04/23 08:43:12;;;;;;;43.38;30.80;;;13.60;99.90;;;;;;5002435;28;20084;-63
2023/04/23 08:45:40;;;;;;;42.83;32.25;;;13.70;99.90;;;;;;4999050;28;20089;-68
2023/04/23 08:48:08;;;;;;;44.85;31.55;;;13.80;99.90;;;;;;5002548;28;20085;-71
2023/04/23 08:50:37;;;;;;;43.13;30.58;;;14.10;99.90;;;;;;5002315;28;20089;-71
2023/04/23 08:53:05;;;;;;;39.90;27.20;;;14.20;99.90;;;;;;5001839;28;20088;-62
2023/04/23 08:55:33;;;;;;;39.38;27.60;;;14.20;99.90;;;;;;5001876;28;20401;-65
2023/04/23 08:58:01;;;;;;;38.65;25.85;;;14.40;99.90;;;;;;5002183;28;20407;-72
2023/04/23 09:00:28;;;;;;;38.78;28.40;;;14.40;99.90;;;;;;5001786;28;20128;-68
2023/04/23 09:02:54;;;;;;;35.88;26.60;;;14.50;99.90;;;;;;5002273;28;20046;-63
2023/04/23 09:05:20;;;;;;;37.72;27.50;;;14.50;99.90;;;;;;5002493;28;20512;-66
2023/04/23 09:07:45;;;;;;;35.90;26.95;;;14.70;99.90;;;;;;5001385;28;20131;-66
2023/04/23 09:10:13;;;;;;;33.30;25.15;;;15.00;99.90;;;;;;5001452;28;20408;-66
2023/04/23 09:12:41;;;;;;;33.85;26.52;;;15.20;99.90;;;;;;5003222;28;20045;-55
2023/04/23 09:15:11;;;;;;;35.22;25.77;;;15.30;99.90;;;;;;5004731;28;20089;-61
2023/04/23 09:17:42;;;;;;;35.08;24.85;;;15.40;99.90;;;;;;5004988;28;20180;-61
2023/04/23 09:20:08;;;;;;;37.20;26.98;;;15.50;99.90;;;;;;5002879;28;20436;-70
2023/04/23 09:22:47;;;;;;;30.75;23.15;;;15.40;99.90;;;;;;5002068;28;20038;-64
2023/04/23 09:25:15;;;;;;;34.38;25.40;;;15.50;99.90;;;;;;5001437;28;20042;-61
2023/04/23 09:27:41;;;;;;;31.27;22.50;;;15.50;99.90;;;;;;5002280;28;20197;-57
2023/04/23 09:30:09;;;;;;;34.60;20.60;;;15.40;99.90;;;;;;5001463;28;20034;-72
2023/04/23 09:32:36;;;;;;;26.75;20.13;;;15.50;99.90;;;;;;5001826;28;20121;-70
2023/04/23 09:35:11;;;;;;;28.08;19.42;;;15.50;99.90;;;;;;5001753;28;20400;-62
2023/04/23 09:37:41;;;;;;;24.45;18.33;;;15.60;99.90;;;;;;5001286;28;20250;-68
2023/04/23 09:40:07;;;;;;;29.83;21.10;;;15.70;99.90;;;;;;5001711;28;20113;-60
2023/04/23 09:42:34;;;;;;;28.55;20.30;;;15.80;99.90;;;;;;5005764;28;20129;-71
2023/04/23 09:45:04;;;;;;;29.00;21.15;;;15.80;99.90;;;;;;5005300;28;20299;-70
2023/04/23 09:47:47;;;;;;;26.73;20.08;;;15.80;99.90;;;;;;5005883;28;20049;-60
2023/04/23 09:50:12;;;;;;;26.27;19.35;;;16.00;99.90;;;;;;5005448;28;20385;-59
2023/04/23 09:52:39;;;;;;;26.58;18.40;;;16.00;99.90;;;;;;5008236;28;20121;-63
2023/04/23 09:55:06;;;;;;;23.48;16.65;;;16.00;99.90;;;;;;5005133;28;20076;-66
2023/04/23 09:57:36;;;;;;;21.50;15.55;;;16.10;99.90;;;;;;5005093;28;20130;-63
2023/04/23 10:00:17;;;;;;;20.08;15.85;;;16.10;99.90;;;;;;5005551;28;20200;-71
2023/04/23 10:02:50;;;;;;;23.98;15.90;;;16.20;99.90;;;;;;5005662;28;20160;-66
2023/04/23 10:05:17;;;;;;;21.17;15.13;;;16.40;99.90;;;;;;5005013;28;20041;-64
2023/04/23 10:07:45;;;;;;;21.60;15.38;;;16.40;99.90;;;;;;5003871;28;20110;-67
2023/04/23 10:10:12;;;;;;;21.13;14.88;;;16.50;99.90;;;;;;5004943;28;20058;-72
2023/04/23 10:12:38;;;;;;;17.45;13.57;;;16.50;99.90;;;;;;5004791;28;20041;-71
2023/04/23 10:15:06;;;;;;;18.73;14.02;;;16.80;99.90;;;;;;5005138;28;20037;-72
2023/04/23 10:17:33;;;;;;;17.38;11.98;;;16.90;99.90;;;;;;5004903;28;20045;-57
2023/04/23 10:20:00;;;;;;;19.00;14.05;;;16.80;99.90;;;;;;5004780;28;20041;-69
2023/04/23 10:22:29;;;;;;;17.60;13.30;;;16.60;99.90;;;;;;5004922;28;20038;-69
2023/04/23 10:24:57;;;;;;;19.35;13.82;;;16.60;99.90;;;;;;5004464;28;20045;-59
2023/04/23 10:27:27;;;;;;;16.85;11.27;;;16.70;99.90;;;;;;5004187;28;20473;-67
2023/04/23 10:29:53;;;;;;;16.75;10.90;;;16.90;99.90;;;;;;5003565;28;20124;-67
2023/04/23 10:32:20;;;;;;;16.92;10.43;;;17.10;99.90;;;;;;5004818;28;20428;-68
2023/04/23 10:34:46;;;;;;;17.65;11.13;;;17.10;99.90;;;;;;5003820;28;20096;-62
2023/04/23 10:37:14;;;;;;;19.02;12.55;;;17.00;99.90;;;;;;5005337;28;20588;-65
2023/04/23 10:39:43;;;;;;;16.23;10.73;;;17.00;99.90;;;;;;5003990;28;20385;-69
2023/04/23 10:42:09;;;;;;;15.38;10.13;;;17.30;99.90;;;;;;5004196;28;20050;-62
2023/04/23 10:44:42;;;;;;;12.55;9.38;;;17.50;99.90;;;;;;5004583;28;20038;-61
2023/04/23 10:47:12;;;;;;;13.10;9.07;;;17.40;99.90;;;;;;5004514;28;20038;-68
2023/04/23 10:49:38;;;;;;;12.40;9.07;;;17.20;99.90;;;;;;5004421;28;20370;-59
2023/04/23 10:52:08;;;;;;;12.68;8.75;;;17.00;99.90;;;;;;5003803;28;20042;-71
2023/04/23 10:54:35;;;;;;;12.57;8.45;;;17.10;99.90;;;;;;5003941;28;20046;-60
2023/04/23 10:57:05;;;;;;;11.98;7.70;;;17.10;99.90;;;;;;5003809;28;20099;-68
2023/04/23 10:59:33;;;;;;;12.73;7.55;;;17.30;99.90;;;;;;5004317;28;20145;-67
2023/04/23 11:02:10;;;;;;;11.75;7.63;;;17.50;99.90;;;;;;5003110;28;20140;-69
2023/04/23 11:04:41;;;;;;;13.07;8.10;;;17.70;99.90;;;;;;5004558;28;20041;-71
2023/04/23 11:07:08;;;;;;;10.52;6.80;;;17.70;99.90;;;;;;5004051;28;20049;-72
2023/04/23 11:09:43;;;;;;;12.70;7.20;;;17.90;99.90;;;;;;5003590;28;20107;-67
2023/04/23 11:12:13;;;;;;;;;;;18.00;99.90;;;;;;5004509;28;20105;-70
2023/04/23 11:14:44;;;;;;;12.45;6.25;;;17.90;99.90;;;;;;5004269;28;19972;-72
2023/04/23 11:17:12;;;;;;;11.35;6.35;;;17.80;99.90;;;;;;5003736;28;20412;-62
2023/04/23 11:19:39;;;;;;;9.40;6.03;;;17.80;99.90;;;;;;5004045;28;20053;-68
2023/04/23 11:22:19;;;;;;;9.63;6.22;;;17.90;99.90;;;;;;5004174;28;20045;-69
2023/04/23 11:24:45;;;;;;;8.73;4.55;;;17.90;99.90;;;;;;5003550;28;20052;-69
2023/04/23 11:27:13;;;;;;;12.85;5.53;;;17.70;99.90;;;;;;5003831;28;20050;-68
2023/04/23 11:29:40;;;;;;;8.57;4.25;;;17.40;99.90;;;;;;5004074;28;20612;-71
2023/04/23 11:32:09;;;;;;;9.18;4.90;;;17.50;99.90;;;;;;5004081;28;20084;-63
2023/04/23 11:34:43;;;;;;;9.32;3.70;;;17.70;99.90;;;;;;5006180;28;20060;-73
2023/04/23 11:37:14;;;;;;;6.20;3.53;;;17.80;99.90;;;;;;5005369;28;20213;-69
2023/04/23 11:39:41;;;;;;;9.65;4.22;;;17.70;99.90;;;;;;5003649;28;20513;-72
2023/04/23 11:42:13;;;;;;;7.88;3.80;;;17.90;99.90;;;;;;5003272;28;20200;-69
2023/04/23 11:44:43;;;;;;;6.25;3.15;;;18.00;99.90;;;;;;5002982;28;20488;-66
2023/04/23 11:47:15;;;;;;;6.95;2.97;;;18.20;99.90;;;;;;5003372;28;20119;-70
2023/04/23 11:49:42;;;;;;;9.48;2.95;;;18.20;99.90;;;;;;5003435;28;20100;-66
2023/04/23 11:52:08;;;;;;;8.90;3.03;;;18.30;99.90;;;;;;5002654;28;20049;-62
2023/04/23 11:54:34;;;;;;;6.60;2.55;;;18.30;99.70;;;;;;5002936;28;20050;-63
2023/04/23 11:57:00;;;;;;;5.45;2.55;;;18.40;98.00;;;;;;5003785;28;20444;-64
2023/04/23 11:59:27;;;;;;;4.35;2.20;;;18.30;97.30;;;;;;5002635;28;20108;-62
2023/04/23 12:01:55;;;;;;;6.85;2.35;;;18.20;98.00;;;;;;5003180;28;20050;-61
2023/04/23 12:04:26;;;;;;;6.60;2.60;;;18.20;98.60;;;;;;5002838;28;20058;-66
2023/04/23 12:06:53;;;;;;;6.38;2.22;;;18.20;97.60;;;;;;5002798;28;20072;-69
2023/04/23 12:09:21;;;;;;;5.07;2.45;;;18.20;98.10;;;;;;5002657;28;20046;-70
2023/04/23 12:11:49;;;;;;;5.47;2.58;;;18.10;96.80;;;;;;5003173;28;20594;-73
2023/04/23 12:14:17;;;;;;;7.97;2.80;;;17.90;98.90;;;;;;5002501;28;20042;-56
2023/04/23 12:16:51;;;;;;;5.68;2.10;;;17.90;98.00;;;;;;5002987;28;20445;-65
2023/04/23 12:19:19;;;;;;;4.00;1.87;;;18.10;97.90;;;;;;5003228;28;20056;-70
2023/04/23 12:21:55;;;;;;;7.10;2.38;;;18.10;97.90;;;;;;5002244;28;20488;-70
2023/04/23 12:24:26;;;;;;;4.75;1.92;;;18.10;96.10;;;;;;5002388;28;20405;-72
2023/04/23 12:26:53;;;;;;;6.65;2.00;;;18.20;97.00;;;;;;5002998;28;20057;-71
2023/04/23 12:29:20;;;;;;;6.32;2.15;;;18.30;95.00;;;;;;5002450;28;20088;-66
2023/04/23 12:31:47;;;;;;;5.45;1.98;;;18.40;95.30;;;;;;5003096;28;20081;-62